createdAt,value
2022-09-16T00:00:20.658Z,12.90
2022-09-16T00:02:47.949Z,12.80
2022-09-16T00:05:14.800Z,12.80
2022-09-16T00:07:41.762Z,12.80
2022-09-16T00:10:09.346Z,12.70
2022-09-16T00:12:36.909Z,12.70
2022-09-16T00:15:05.037Z,12.70
2022-09-16T00:17:34.834Z,12.70
2022-09-16T00:20:01.897Z,12.60
2022-09-16T00:22:29.538Z,12.60
2022-09-16T00:24:56.357Z,12.60
2022-09-16T00:27:23.533Z,12.60
2022-09-16T00:29:50.459Z,12.50
2022-09-16T00:32:17.829Z,12.60
2022-09-16T00:34:46.025Z,12.60
2022-09-16T00:37:13.444Z,12.60
2022-09-16T00:39:40.428Z,12.50
2022-09-16T00:42:07.325Z,12.50
2022-09-16T00:44:57.528Z,12.40
2022-09-16T00:47:31.572Z,12.40
2022-09-16T00:50:05.207Z,12.40
2022-09-16T00:52:33.331Z,12.40
2022-09-16T00:55:06.465Z,12.40
2022-09-16T00:57:34.264Z,12.40
2022-09-16T01:00:03.736Z,12.30
2022-09-16T01:02:31.232Z,12.30
2022-09-16T01:05:26.131Z,12.30
2022-09-16T01:07:54.470Z,12.30
2022-09-16T01:10:24.153Z,12.30
2022-09-16T01:12:54.563Z,12.30
2022-09-16T01:15:23.726Z,12.30
2022-09-16T01:18:02.078Z,12.30
2022-09-16T01:20:57.743Z,12.20
2022-09-16T01:24:01.380Z,12.20
2022-09-16T01:27:10.179Z,12.20
2022-09-16T01:29:51.713Z,12.30
2022-09-16T01:32:27.611Z,12.20
2022-09-16T01:35:05.059Z,12.20
2022-09-16T01:37:40.038Z,12.20
2022-09-16T01:40:14.865Z,12.20
2022-09-16T01:42:47.569Z,12.10
2022-09-16T01:45:20.035Z,12.20
2022-09-16T01:47:56.514Z,12.10
2022-09-16T01:50:29.769Z,12.20
2022-09-16T01:53:04.791Z,12.20
2022-09-16T01:55:36.229Z,12.20
2022-09-16T01:58:09.232Z,12.20
2022-09-16T02:00:37.393Z,12.20
2022-09-16T02:03:08.796Z,12.10
2022-09-16T02:05:40.600Z,12.10
2022-09-16T02:08:11.117Z,12.10
2022-09-16T02:10:43.646Z,12.10
2022-09-16T02:13:17.119Z,12.10
2022-09-16T02:15:47.417Z,12.20
2022-09-16T02:18:21.273Z,12.20
2022-09-16T02:20:51.729Z,12.20
2022-09-16T02:23:22.672Z,12.10
2022-09-16T02:25:50.864Z,12.20
2022-09-16T02:28:22.933Z,12.20
2022-09-16T02:30:55.996Z,12.20
2022-09-16T02:33:29.276Z,12.20
2022-09-16T02:35:56.527Z,12.20
2022-09-16T02:38:26.461Z,12.20
2022-09-16T02:40:57.327Z,12.20
2022-09-16T02:43:25.590Z,12.20
2022-09-16T02:46:00.509Z,12.30
2022-09-16T02:48:40.924Z,12.30
2022-09-16T02:51:18.411Z,12.30
2022-09-16T02:53:49.858Z,12.30
2022-09-16T02:56:23.280Z,12.30
2022-09-16T02:58:50.373Z,12.30
2022-09-16T03:01:19.695Z,12.20
2022-09-16T03:03:48.236Z,12.20
2022-09-16T03:06:18.821Z,12.30
2022-09-16T03:08:46.786Z,12.20
2022-09-16T03:11:30.561Z,12.20
2022-09-16T03:14:13.632Z,12.20
2022-09-16T03:16:50.052Z,12.10
2022-09-16T03:19:26.027Z,12.20
2022-09-16T03:21:59.308Z,12.10
2022-09-16T03:24:35.649Z,12.10
2022-09-16T03:27:09.590Z,12.00
2022-09-16T03:29:43.844Z,12.10
2022-09-16T03:32:18.916Z,12.00
2022-09-16T03:34:51.643Z,12.00
2022-09-16T03:37:21.292Z,12.00
2022-09-16T03:39:50.951Z,12.00
2022-09-16T03:42:17.885Z,12.00
2022-09-16T03:44:44.644Z,12.00
2022-09-16T03:47:11.931Z,12.00
2022-09-16T03:49:39.366Z,12.00
2022-09-16T03:52:08.423Z,12.00
2022-09-16T03:54:35.706Z,12.00
2022-09-16T03:57:02.634Z,12.00
2022-09-16T03:59:30.066Z,12.00
2022-09-16T04:01:56.963Z,12.00
2022-09-16T04:04:24.470Z,11.90
2022-09-16T04:06:51.275Z,11.90
2022-09-16T04:09:19.808Z,11.90
2022-09-16T04:11:46.588Z,11.90
2022-09-16T04:14:13.426Z,11.90
2022-09-16T04:16:44.378Z,11.90
2022-09-16T04:19:14.177Z,11.90
2022-09-16T04:21:41.675Z,11.80
2022-09-16T04:24:13.084Z,11.90
2022-09-16T04:26:41.746Z,11.80
2022-09-16T04:29:09.431Z,11.80
2022-09-16T04:31:36.233Z,11.80
2022-09-16T04:34:04.105Z,11.80
2022-09-16T04:36:31.990Z,11.80
2022-09-16T04:38:59.074Z,11.80
2022-09-16T04:41:26.785Z,11.80
2022-09-16T04:43:56.820Z,11.80
2022-09-16T04:46:24.420Z,11.80
2022-09-16T04:48:53.016Z,11.80
2022-09-16T04:51:20.929Z,11.80
2022-09-16T04:53:48.152Z,11.80
2022-09-16T04:56:16.733Z,11.80
2022-09-16T04:58:45.905Z,11.80
2022-09-16T05:01:16.923Z,11.80
2022-09-16T05:03:46.847Z,11.80
2022-09-16T05:06:20.477Z,11.80
2022-09-16T05:08:48.698Z,11.80
2022-09-16T05:11:18.189Z,11.70
2022-09-16T05:13:46.283Z,11.90
2022-09-16T05:16:16.703Z,11.90
2022-09-16T05:18:46.396Z,11.80
2022-09-16T05:21:15.287Z,11.80
2022-09-16T05:23:46.911Z,11.90
2022-09-16T05:26:17.672Z,12.10
2022-09-16T05:28:45.024Z,12.00
2022-09-16T05:31:27.037Z,12.00
2022-09-16T05:34:02.326Z,12.00
2022-09-16T05:36:31.350Z,12.00
2022-09-16T05:39:21.574Z,12.00
2022-09-16T05:41:46.246Z,12.00
2022-09-16T05:44:13.426Z,12.10
2022-09-16T05:46:42.074Z,12.20
2022-09-16T05:49:09.500Z,12.20
2022-09-16T05:51:43.172Z,12.20
2022-09-16T05:54:10.597Z,12.20
2022-09-16T05:56:37.646Z,12.20
2022-09-16T05:59:04.667Z,12.30
2022-09-16T06:01:36.013Z,12.20
2022-09-16T06:04:06.908Z,12.30
2022-09-16T06:06:35.290Z,12.30
2022-09-16T06:09:06.168Z,12.40
2022-09-16T06:11:36.630Z,12.40
2022-09-16T06:14:04.245Z,12.50
2022-09-16T06:16:32.952Z,12.50
2022-09-16T06:19:01.762Z,12.40
2022-09-16T06:21:30.422Z,12.40
2022-09-16T06:23:57.331Z,12.50
2022-09-16T06:26:25.770Z,12.40
2022-09-16T06:28:53.656Z,12.50
2022-09-16T06:31:22.261Z,12.50
2022-09-16T06:33:52.973Z,12.50
2022-09-16T06:36:22.965Z,12.50
2022-09-16T06:38:55.531Z,12.50
2022-09-16T06:41:25.130Z,12.60
2022-09-16T06:43:54.681Z,12.70
2022-09-16T06:46:23.574Z,12.80
2022-09-16T06:48:52.594Z,13.00
2022-09-16T06:51:22.836Z,13.00
2022-09-16T06:54:00.314Z,13.00
2022-09-16T06:56:30.770Z,12.90
2022-09-16T06:58:58.259Z,12.90
2022-09-16T07:01:34.990Z,12.80
2022-09-16T07:04:06.879Z,12.80
2022-09-16T07:09:33.471Z,12.90
2022-09-16T07:12:03.931Z,13.00
2022-09-16T07:14:36.344Z,13.00
2022-09-16T07:17:03.961Z,13.10
2022-09-16T07:19:31.035Z,13.10
2022-09-16T07:21:58.534Z,13.10
2022-09-16T07:24:27.599Z,13.10
2022-09-16T07:26:55.291Z,13.20
2022-09-16T07:29:23.696Z,13.20
2022-09-16T07:31:53.433Z,13.10
2022-09-16T07:34:23.037Z,13.10
2022-09-16T07:36:50.268Z,13.10
2022-09-16T07:39:18.932Z,13.20
2022-09-16T07:41:48.919Z,13.30
2022-09-16T07:44:17.919Z,13.30
2022-09-16T07:46:48.379Z,13.40
2022-09-16T07:49:17.054Z,13.30
2022-09-16T07:51:45.040Z,13.40
2022-09-16T07:54:14.387Z,13.40
2022-09-16T07:56:42.565Z,13.50
2022-09-16T07:59:15.865Z,13.40
2022-09-16T08:01:49.462Z,13.40
2022-09-16T08:04:20.451Z,13.50
2022-09-16T08:06:50.900Z,13.60
2022-09-16T08:09:38.160Z,13.80
2022-09-16T08:12:10.746Z,13.90
2022-09-16T08:14:37.887Z,13.90
2022-09-16T08:17:09.711Z,14.00
2022-09-16T08:19:39.946Z,14.00
2022-09-16T08:22:07.461Z,14.00
2022-09-16T08:24:34.667Z,14.20
2022-09-16T08:27:03.360Z,14.30
2022-09-16T08:29:30.582Z,14.40
2022-09-16T08:31:57.853Z,14.40
2022-09-16T08:34:29.107Z,14.30
2022-09-16T08:37:01.317Z,14.40
2022-09-16T08:39:28.388Z,14.40
2022-09-16T08:42:22.023Z,14.40
2022-09-16T08:45:05.043Z,14.40
2022-09-16T08:47:42.995Z,14.40
2022-09-16T08:50:19.609Z,14.40
2022-09-16T08:52:54.829Z,14.50
2022-09-16T08:55:31.729Z,14.70
2022-09-16T08:58:06.199Z,14.50
2022-09-16T09:00:34.286Z,14.50
2022-09-16T09:03:16.519Z,14.40
2022-09-16T09:05:51.745Z,14.30
2022-09-16T09:08:33.206Z,14.40
2022-09-16T09:11:12.512Z,14.40
2022-09-16T09:13:52.291Z,14.50
2022-09-16T09:16:28.137Z,14.50
2022-09-16T09:19:13.113Z,14.40
2022-09-16T09:21:49.476Z,14.40
2022-09-16T09:24:39.156Z,14.50
2022-09-16T09:27:17.702Z,14.50
2022-09-16T09:30:04.424Z,14.50
2022-09-16T09:32:49.546Z,14.70
2022-09-16T09:35:34.553Z,14.90
2022-09-16T09:38:33.162Z,14.90
2022-09-16T09:41:08.245Z,14.90
2022-09-16T09:46:13.198Z,14.80
2022-09-16T09:48:48.465Z,15.00
2022-09-16T09:51:22.746Z,15.00
2022-09-16T09:53:55.024Z,15.00
2022-09-16T09:56:32.114Z,15.10
2022-09-16T09:59:08.763Z,15.20
2022-09-16T10:01:39.676Z,15.20
2022-09-16T10:04:13.101Z,15.10
2022-09-16T10:06:43.557Z,15.00
2022-09-16T10:09:20.469Z,15.00
2022-09-16T10:11:52.381Z,15.00
2022-09-16T10:14:26.785Z,15.10
2022-09-16T10:16:55.411Z,15.30
2022-09-16T10:19:28.095Z,15.30
2022-09-16T10:21:58.228Z,15.40
2022-09-16T10:24:32.899Z,15.20
2022-09-16T10:27:01.232Z,15.20
2022-09-16T10:29:31.664Z,15.20
2022-09-16T10:32:06.454Z,15.40
2022-09-16T10:34:36.587Z,15.60
2022-09-16T10:37:16.570Z,15.70
2022-09-16T10:39:50.173Z,15.80
2022-09-16T10:42:22.647Z,16.20
2022-09-16T10:44:51.438Z,15.80
2022-09-16T10:47:21.775Z,15.10
2022-09-16T10:49:51.330Z,14.70
2022-09-16T10:52:23.152Z,14.80
2022-09-16T10:54:51.446Z,15.00
2022-09-16T10:57:29.485Z,15.40
2022-09-16T11:00:13.824Z,15.50
2022-09-16T11:03:13.957Z,15.70
2022-09-16T11:05:52.671Z,15.90
2022-09-16T11:08:32.865Z,16.10
2022-09-16T11:11:11.187Z,16.10
2022-09-16T11:13:48.531Z,16.30
2022-09-16T11:16:31.234Z,16.50
2022-09-16T11:19:06.933Z,16.70
2022-09-16T11:21:45.892Z,16.60
2022-09-16T11:24:55.898Z,16.60
2022-09-16T11:27:36.144Z,16.90
2022-09-16T11:30:09.932Z,17.00
2022-09-16T11:33:05.755Z,17.20
2022-09-16T11:36:01.567Z,17.20
2022-09-16T11:38:43.757Z,17.30
2022-09-16T11:41:19.465Z,17.10
2022-09-16T11:44:20.782Z,17.20
2022-09-16T11:46:57.849Z,17.20
2022-09-16T11:49:44.833Z,17.60
2022-09-16T11:52:26.070Z,17.70
2022-09-16T11:55:04.727Z,18.10
2022-09-16T11:57:36.178Z,18.30
2022-09-16T12:00:10.439Z,18.40
2022-09-16T12:02:42.614Z,18.50
2022-09-16T12:05:17.173Z,18.30
2022-09-16T12:07:53.408Z,18.10
2022-09-16T12:10:23.544Z,17.90
2022-09-16T12:12:53.577Z,18.10
2022-09-16T12:15:26.806Z,18.10
2022-09-16T12:17:56.145Z,18.20
2022-09-16T12:20:27.754Z,18.60
2022-09-16T12:23:00.794Z,18.90
2022-09-16T12:25:33.236Z,19.10
2022-09-16T12:28:04.817Z,19.00
2022-09-16T12:30:38.784Z,18.80
2022-09-16T12:33:11.023Z,18.70
2022-09-16T12:35:41.166Z,18.80
2022-09-16T12:38:16.683Z,18.60
2022-09-16T12:41:02.437Z,18.70
2022-09-16T12:43:48.374Z,18.70
2022-09-16T12:46:43.105Z,18.20
2022-09-16T12:49:46.352Z,18.20
2022-09-16T12:52:26.751Z,17.80
2022-09-16T12:55:13.939Z,17.00
2022-09-16T12:58:06.548Z,16.60
2022-09-16T13:00:39.128Z,16.80
2022-09-16T13:03:13.235Z,17.10
2022-09-16T13:05:44.360Z,17.70
2022-09-16T13:08:21.200Z,18.10
2022-09-16T13:11:11.591Z,18.40
2022-09-16T13:13:48.439Z,18.40
2022-09-16T13:16:26.510Z,18.50
2022-09-16T13:19:10.772Z,18.40
2022-09-16T13:21:44.869Z,18.50
2022-09-16T13:24:16.115Z,18.70
2022-09-16T13:26:44.593Z,19.00
2022-09-16T13:29:31.861Z,19.40
2022-09-16T13:31:58.656Z,19.50
2022-09-16T13:34:26.859Z,19.60
2022-09-16T13:36:54.174Z,19.60
2022-09-16T13:39:32.114Z,19.10
2022-09-16T13:42:10.555Z,18.40
2022-09-16T13:44:41.900Z,17.80
2022-09-16T13:47:29.888Z,16.60
2022-09-16T13:50:05.441Z,15.60
2022-09-16T13:52:35.022Z,14.60
2022-09-16T13:55:10.350Z,14.30
2022-09-16T13:57:49.231Z,14.10
2022-09-16T14:00:20.222Z,14.40
2022-09-16T14:03:13.122Z,14.70
2022-09-16T14:06:01.250Z,14.80
2022-09-16T14:08:39.385Z,14.90
2022-09-16T14:11:13.949Z,14.90
2022-09-16T14:13:48.078Z,14.90
2022-09-16T14:16:18.708Z,15.10
2022-09-16T14:18:54.267Z,14.90
2022-09-16T14:21:24.692Z,15.00
2022-09-16T14:23:51.811Z,15.00
2022-09-16T14:26:20.877Z,15.00
2022-09-16T14:28:47.959Z,14.90
2022-09-16T14:31:17.370Z,14.90
2022-09-16T14:33:47.500Z,15.30
2022-09-16T14:36:23.900Z,15.90
2022-09-16T14:38:56.037Z,16.10
2022-09-16T14:41:28.138Z,17.00
2022-09-16T14:44:00.934Z,17.60
2022-09-16T14:46:27.963Z,17.80
2022-09-16T14:48:55.092Z,17.20
2022-09-16T14:51:26.024Z,16.80
2022-09-16T14:54:13.757Z,16.50
2022-09-16T14:56:40.792Z,16.40
2022-09-16T14:59:12.108Z,16.00
2022-09-16T15:01:39.954Z,16.30
2022-09-16T15:04:11.023Z,16.70
2022-09-16T15:06:44.392Z,17.00
2022-09-16T15:09:18.907Z,17.20
2022-09-16T15:11:50.166Z,16.80
2022-09-16T15:14:17.938Z,16.40
2022-09-16T15:16:48.596Z,16.10
2022-09-16T15:19:21.323Z,15.90
2022-09-16T15:21:50.685Z,15.70
2022-09-16T15:24:20.538Z,15.70
2022-09-16T15:26:48.317Z,15.70
2022-09-16T15:29:30.038Z,15.80
2022-09-16T15:32:14.153Z,15.80
2022-09-16T15:34:44.173Z,15.70
2022-09-16T15:37:31.468Z,15.70
2022-09-16T15:40:20.638Z,15.70
2022-09-16T15:42:49.086Z,15.70
2022-09-16T15:45:18.481Z,15.70
2022-09-16T15:47:59.897Z,15.70
2022-09-16T15:50:30.417Z,15.60
2022-09-16T15:53:04.012Z,15.50
2022-09-16T15:55:37.127Z,15.50
2022-09-16T15:58:10.284Z,15.30
2022-09-16T16:01:00.574Z,15.30
2022-09-16T16:03:30.897Z,15.20
2022-09-16T16:05:57.979Z,15.10
2022-09-16T16:08:44.613Z,15.00
2022-09-16T16:11:13.701Z,14.90
2022-09-16T16:13:40.696Z,14.90
2022-09-16T16:16:08.950Z,14.70
2022-09-16T16:18:36.963Z,14.60
2022-09-16T16:21:08.347Z,14.60
2022-09-16T16:23:36.453Z,14.60
2022-09-16T16:26:05.883Z,14.50
2022-09-16T16:28:33.456Z,14.40
2022-09-16T16:31:12.695Z,14.40
2022-09-16T16:33:44.697Z,14.40
2022-09-16T16:36:13.147Z,14.40
2022-09-16T16:38:40.373Z,14.30
2022-09-16T16:41:09.204Z,14.20
2022-09-16T16:43:36.011Z,14.20
2022-09-16T16:46:03.274Z,14.20
2022-09-16T16:48:30.598Z,14.10
2022-09-16T16:50:58.699Z,14.10
2022-09-16T16:53:26.719Z,14.00
2022-09-16T16:55:53.857Z,14.00
2022-09-16T16:58:22.086Z,14.00
2022-09-16T17:00:48.936Z,14.00
2022-09-16T17:03:16.736Z,14.00
2022-09-16T17:05:43.684Z,14.00
2022-09-16T17:08:10.962Z,14.00
2022-09-16T17:10:38.116Z,14.00
2022-09-16T17:13:04.995Z,14.00
2022-09-16T17:15:33.132Z,14.00
2022-09-16T17:18:00.006Z,14.00
2022-09-16T17:20:26.771Z,14.00
2022-09-16T17:22:53.958Z,14.00
2022-09-16T17:25:20.868Z,14.00
2022-09-16T17:27:48.203Z,14.00
2022-09-16T17:30:15.099Z,13.90
2022-09-16T17:32:43.565Z,14.00
2022-09-16T17:35:10.406Z,14.10
2022-09-16T17:37:38.785Z,13.90
2022-09-16T17:40:07.123Z,13.90
2022-09-16T17:42:34.309Z,13.90
2022-09-16T17:45:06.168Z,13.90
2022-09-16T17:47:34.005Z,13.90
2022-09-16T17:50:05.271Z,13.90
2022-09-16T17:52:32.179Z,13.90
2022-09-16T17:54:59.180Z,13.90
2022-09-16T17:57:28.953Z,13.90
2022-09-16T17:59:59.623Z,13.90
2022-09-16T18:02:26.588Z,13.90
2022-09-16T18:04:53.875Z,13.80
2022-09-16T18:07:22.072Z,13.90
2022-09-16T18:09:49.166Z,13.80
2022-09-16T18:12:16.012Z,13.80
2022-09-16T18:14:42.807Z,13.80
2022-09-16T18:17:10.024Z,13.90
2022-09-16T18:19:37.073Z,13.90
2022-09-16T18:22:04.063Z,13.90
2022-09-16T18:24:32.257Z,13.80
2022-09-16T18:26:59.582Z,13.90
2022-09-16T18:29:31.460Z,13.80
2022-09-16T18:31:58.395Z,13.90
2022-09-16T18:34:27.992Z,13.80
2022-09-16T18:36:58.340Z,13.60
2022-09-16T18:39:25.552Z,13.50
2022-09-16T18:41:53.821Z,13.40
2022-09-16T18:44:24.873Z,13.40
2022-09-16T18:46:52.504Z,13.30
2022-09-16T18:49:22.377Z,13.40
2022-09-16T18:51:52.197Z,13.30
2022-09-16T18:54:24.532Z,13.20
2022-09-16T18:56:55.947Z,13.20
2022-09-16T18:59:26.763Z,13.30
2022-09-16T19:01:55.719Z,13.20
2022-09-16T19:04:25.724Z,13.30
2022-09-16T19:06:55.609Z,13.30
2022-09-16T19:09:24.053Z,13.30
2022-09-16T19:11:55.251Z,13.30
2022-09-16T19:14:27.458Z,13.30
2022-09-16T19:16:55.182Z,13.30
2022-09-16T19:19:22.508Z,13.30
2022-09-16T19:21:49.728Z,13.20
2022-09-16T19:24:18.229Z,13.30
2022-09-16T19:26:46.653Z,13.20
2022-09-16T19:29:15.178Z,13.20
2022-09-16T19:31:46.107Z,13.20
2022-09-16T19:34:14.551Z,13.20
2022-09-16T19:36:42.484Z,13.20
2022-09-16T19:39:10.556Z,13.20
2022-09-16T19:41:39.436Z,13.20
2022-09-16T19:44:08.316Z,13.10
2022-09-16T19:46:37.557Z,13.20
2022-09-16T19:49:06.575Z,13.10
2022-09-16T19:51:55.150Z,13.10
2022-09-16T19:54:30.922Z,13.00
2022-09-16T19:57:02.926Z,13.00
2022-09-16T19:59:54.441Z,12.90
2022-09-16T20:02:33.767Z,12.80
2022-09-16T20:05:14.033Z,12.80
2022-09-16T20:07:41.717Z,12.80
2022-09-16T20:10:13.303Z,12.90
2022-09-16T20:12:48.447Z,12.70
2022-09-16T20:15:28.214Z,12.60
2022-09-16T20:17:56.953Z,12.60
2022-09-16T20:20:25.499Z,12.60
2022-09-16T20:26:24.213Z,12.60
2022-09-16T20:29:19.811Z,12.60
2022-09-16T20:31:56.046Z,12.60
2022-09-16T20:34:34.492Z,12.50
2022-09-16T20:37:27.060Z,12.50
2022-09-16T20:40:14.395Z,12.50
2022-09-16T20:42:48.878Z,12.60
2022-09-16T20:45:56.223Z,12.40
2022-09-16T20:48:23.324Z,12.40
2022-09-16T20:50:50.653Z,12.40
2022-09-16T20:53:18.908Z,12.40
2022-09-16T20:55:46.090Z,12.40
2022-09-16T20:58:13.275Z,12.40
2022-09-16T21:00:40.532Z,12.40
2022-09-16T21:03:10.846Z,12.40
2022-09-16T21:05:38.030Z,12.40
2022-09-16T21:08:04.873Z,12.40
2022-09-16T21:10:34.055Z,12.50
2022-09-16T21:13:00.981Z,12.50
2022-09-16T21:15:28.543Z,12.50
2022-09-16T21:17:55.362Z,12.40
2022-09-16T21:20:22.810Z,12.40
2022-09-16T21:22:49.717Z,12.50
2022-09-16T21:25:17.108Z,12.40
2022-09-16T21:27:45.378Z,12.40
2022-09-16T21:30:13.331Z,12.50
2022-09-16T21:32:42.603Z,12.50
2022-09-16T21:35:09.952Z,12.50
2022-09-16T21:37:36.856Z,12.50
2022-09-16T21:40:04.291Z,12.40
2022-09-16T21:42:36.266Z,12.40
2022-09-16T21:45:05.172Z,12.40
2022-09-16T21:47:32.536Z,12.40
2022-09-16T21:50:00.823Z,12.60
2022-09-16T21:52:27.693Z,12.40
2022-09-16T21:54:54.525Z,12.40
2022-09-16T21:57:21.395Z,12.30
2022-09-16T21:59:48.257Z,12.40
2022-09-16T22:02:16.685Z,12.40
2022-09-16T22:04:43.553Z,12.40
2022-09-16T22:07:10.848Z,12.40
2022-09-16T22:09:37.986Z,12.40
2022-09-16T22:12:07.142Z,12.30
2022-09-16T22:14:34.010Z,12.30
2022-09-16T22:17:01.179Z,12.30
2022-09-16T22:19:29.572Z,12.30
2022-09-16T22:21:56.769Z,12.20
2022-09-16T22:24:23.583Z,12.20
2022-09-16T22:26:52.115Z,12.20
2022-09-16T22:29:18.972Z,12.20
2022-09-16T22:31:46.502Z,12.20
2022-09-16T22:34:13.596Z,12.20
2022-09-16T22:36:42.321Z,12.20
2022-09-16T22:39:12.550Z,12.10
2022-09-16T22:41:40.235Z,12.10
2022-09-16T22:44:07.325Z,12.00
2022-09-16T22:46:41.232Z,12.00
2022-09-16T22:49:08.308Z,11.80
2022-09-16T22:51:35.722Z,11.90
2022-09-16T22:54:04.256Z,11.80
2022-09-16T22:56:33.395Z,11.80
2022-09-16T22:59:01.656Z,11.80
2022-09-16T23:01:44.660Z,11.80
2022-09-16T23:04:16.356Z,11.80
2022-09-16T23:06:49.981Z,11.70
2022-09-16T23:09:19.013Z,11.70
2022-09-16T23:11:46.766Z,11.70
2022-09-16T23:14:15.946Z,11.70
2022-09-16T23:16:44.241Z,11.70
2022-09-16T23:19:12.507Z,11.70
2022-09-16T23:21:41.697Z,11.70
2022-09-16T23:24:14.099Z,11.70
2022-09-16T23:26:43.568Z,11.70
2022-09-16T23:29:12.487Z,11.70
2022-09-16T23:31:42.245Z,11.70
2022-09-16T23:34:13.057Z,11.70
2022-09-16T23:36:42.508Z,11.70
2022-09-16T23:39:13.464Z,11.70
2022-09-16T23:41:45.345Z,11.80
2022-09-16T23:44:17.054Z,11.70
2022-09-16T23:46:45.659Z,11.70
2022-09-16T23:49:13.510Z,11.70
2022-09-16T23:51:41.063Z,11.70
2022-09-16T23:54:08.350Z,11.70
2022-09-16T23:56:36.082Z,11.80
2022-09-16T23:59:04.402Z,11.80
